createdAt,value
2023-02-28T00:04:21.573Z,14.61
2023-02-28T00:09:23.703Z,14.82
2023-02-28T00:14:26.041Z,14.85
2023-02-28T00:19:28.171Z,14.88
2023-02-28T00:24:30.423Z,14.68
2023-02-28T00:29:32.564Z,14.86
2023-02-28T00:34:39.044Z,14.77
2023-02-28T00:39:42.091Z,14.84
2023-02-28T00:44:44.323Z,14.45
2023-02-28T00:49:46.417Z,14.11
2023-02-28T00:54:48.651Z,14.49
2023-02-28T00:59:51.099Z,14.32
2023-02-28T01:04:53.311Z,14.41
2023-02-28T01:09:56.147Z,14.63
2023-02-28T01:14:59.138Z,14.55
2023-02-28T01:20:01.240Z,14.82
2023-02-28T01:25:03.528Z,14.78
2023-02-28T01:30:06.289Z,14.73
2023-02-28T01:35:08.726Z,14.76
2023-02-28T01:40:11.596Z,14.87
2023-02-28T01:45:32.821Z,14.77
2023-02-28T01:50:41.166Z,14.73
2023-02-28T01:55:46.685Z,14.60
2023-02-28T02:00:49.327Z,14.60
2023-02-28T02:05:51.569Z,14.67
2023-02-28T02:11:01.070Z,14.80
2023-02-28T02:16:12.163Z,14.77
2023-02-28T02:21:38.921Z,14.45
2023-02-28T02:27:11.733Z,14.31
2023-02-28T02:32:47.742Z,14.39
2023-02-28T02:38:00.680Z,14.33
2023-02-28T02:43:15.292Z,14.46
2023-02-28T02:48:22.975Z,14.42
2023-02-28T02:53:39.658Z,14.23
2023-02-28T02:58:45.382Z,14.33
2023-02-28T03:03:51.112Z,14.25
2023-02-28T03:08:53.722Z,14.16
2023-02-28T03:14:27.449Z,14.08
2023-02-28T03:19:40.104Z,13.89
2023-02-28T03:24:56.343Z,13.73
2023-02-28T03:30:11.587Z,13.75
2023-02-28T03:35:23.211Z,13.74
2023-02-28T03:40:31.796Z,13.99
2023-02-28T03:45:37.875Z,13.93
2023-02-28T03:50:42.275Z,13.80
2023-02-28T03:55:48.952Z,13.74
2023-02-28T04:00:58.384Z,14.01
2023-02-28T04:06:00.885Z,13.98
2023-02-28T04:11:14.351Z,13.93
2023-02-28T04:16:32.108Z,13.72
2023-02-28T04:21:41.974Z,13.90
2023-02-28T04:26:46.561Z,13.96
2023-02-28T04:31:48.974Z,13.92
2023-02-28T04:37:02.701Z,13.63
2023-02-28T04:42:14.663Z,13.72
2023-02-28T04:47:16.800Z,13.48
2023-02-28T04:52:18.999Z,13.57
2023-02-28T04:57:21.103Z,13.71
2023-02-28T05:02:25.061Z,13.59
2023-02-28T05:07:27.299Z,13.75
2023-02-28T05:12:29.449Z,13.82
2023-02-28T05:17:31.822Z,13.91
2023-02-28T05:22:33.982Z,14.10
2023-02-28T05:27:36.195Z,14.06
2023-02-28T05:32:44.709Z,14.04
2023-02-28T05:37:46.864Z,13.61
2023-02-28T05:42:51.286Z,13.92
2023-02-28T05:47:57.138Z,14.03
2023-02-28T05:52:59.265Z,14.06
2023-02-28T05:58:01.475Z,14.22
2023-02-28T06:03:03.919Z,14.40
2023-02-28T06:08:08.545Z,14.30
2023-02-28T06:13:10.816Z,14.30
2023-02-28T06:18:13.169Z,14.31
2023-02-28T06:23:15.318Z,14.37
2023-02-28T06:28:17.723Z,14.45
2023-02-28T06:33:19.830Z,14.03
2023-02-28T06:38:22.018Z,13.42
2023-02-28T06:43:24.962Z,13.86
2023-02-28T06:48:28.620Z,14.13
2023-02-28T06:53:30.917Z,13.64
2023-02-28T06:58:33.284Z,12.89
2023-02-28T07:03:37.186Z,12.76
2023-02-28T07:08:41.473Z,13.02
2023-02-28T07:13:43.633Z,13.32
2023-02-28T07:18:45.856Z,12.66
2023-02-28T07:23:48.167Z,13.01
2023-02-28T07:28:51.250Z,13.43
2023-02-28T07:33:54.940Z,13.93
2023-02-28T07:38:57.312Z,14.25
2023-02-28T07:44:00.815Z,14.50
2023-02-28T07:49:04.234Z,14.78
2023-02-28T07:54:06.587Z,14.95
2023-02-28T07:59:08.745Z,14.82
2023-02-28T08:04:11.061Z,14.92
2023-02-28T08:09:13.266Z,15.03
2023-02-28T08:14:15.524Z,15.08
2023-02-28T08:19:17.668Z,15.29
2023-02-28T08:24:19.939Z,15.11
2023-02-28T08:29:22.190Z,15.21
2023-02-28T08:34:24.481Z,15.27
2023-02-28T08:39:26.611Z,15.17
2023-02-28T08:44:28.688Z,15.04
2023-02-28T08:49:31.037Z,14.86
2023-02-28T08:54:34.543Z,14.87
2023-02-28T08:59:36.732Z,15.06
2023-02-28T09:04:38.940Z,15.07
2023-02-28T09:09:55.024Z,14.96
2023-02-28T09:14:57.210Z,15.05
2023-02-28T09:19:59.563Z,14.37
2023-02-28T09:25:01.795Z,14.84
2023-02-28T09:30:04.301Z,15.02
2023-02-28T09:35:06.952Z,14.57
2023-02-28T09:40:11.184Z,14.43
2023-02-28T09:45:35.175Z,14.78
2023-02-28T09:50:43.209Z,15.04
2023-02-28T09:55:56.538Z,15.15
2023-02-28T10:01:13.083Z,15.22
2023-02-28T10:06:18.499Z,15.39
2023-02-28T10:11:22.118Z,15.28
2023-02-28T10:16:31.811Z,15.60
2023-02-28T10:21:47.141Z,15.52
2023-02-28T10:26:50.029Z,15.69
2023-02-28T10:31:52.213Z,15.79
2023-02-28T10:36:56.112Z,15.85
2023-02-28T10:41:59.228Z,15.98
2023-02-28T10:47:01.512Z,15.99
2023-02-28T10:52:03.623Z,15.92
2023-02-28T10:57:23.366Z,15.87
2023-02-28T11:02:44.282Z,15.93
2023-02-28T11:07:54.296Z,16.10
2023-02-28T11:13:01.444Z,16.30
2023-02-28T11:18:28.757Z,16.37
2023-02-28T11:23:37.837Z,16.51
2023-02-28T11:28:42.361Z,16.64
2023-02-28T11:33:55.672Z,16.84
2023-02-28T11:39:04.500Z,16.84
2023-02-28T11:44:27.511Z,16.85
2023-02-28T11:49:32.821Z,16.69
2023-02-28T11:54:55.445Z,16.74
2023-02-28T12:00:20.396Z,16.74
2023-02-28T12:05:25.046Z,16.79
2023-02-28T12:10:31.061Z,16.86
2023-02-28T12:16:10.932Z,16.62
2023-02-28T12:21:44.013Z,16.60
2023-02-28T12:26:47.977Z,16.75
2023-02-28T12:31:53.257Z,16.60
2023-02-28T12:36:59.915Z,16.54
2023-02-28T12:42:18.012Z,16.85
2023-02-28T12:47:20.397Z,17.04
2023-02-28T12:53:08.515Z,17.15
2023-02-28T12:58:29.259Z,17.23
2023-02-28T13:03:43.455Z,17.11
2023-02-28T13:09:00.767Z,17.09
2023-02-28T13:14:17.729Z,17.04
2023-02-28T13:19:24.482Z,16.98
2023-02-28T13:24:49.738Z,16.78
2023-02-28T13:29:53.874Z,16.73
2023-02-28T13:34:57.054Z,16.73
2023-02-28T13:40:11.644Z,16.48
2023-02-28T13:45:13.830Z,16.61
2023-02-28T13:50:34.378Z,16.26
2023-02-28T13:55:59.131Z,16.45
2023-02-28T14:01:23.226Z,16.61
2023-02-28T14:06:28.179Z,16.77
2023-02-28T14:11:36.690Z,17.04
2023-02-28T14:16:43.900Z,17.09
2023-02-28T14:22:03.014Z,17.03
2023-02-28T14:27:44.006Z,17.21
2023-02-28T14:33:10.840Z,17.39
2023-02-28T14:38:23.170Z,17.35
2023-02-28T14:43:30.095Z,17.18
2023-02-28T14:48:32.375Z,17.00
2023-02-28T14:53:38.844Z,16.98
2023-02-28T14:58:41.062Z,16.77
2023-02-28T15:03:46.086Z,16.64
2023-02-28T15:08:48.381Z,16.55
2023-02-28T15:13:56.785Z,16.45
2023-02-28T15:19:02.560Z,16.37
2023-02-28T15:24:15.283Z,16.61
2023-02-28T15:29:22.243Z,16.55
2023-02-28T15:34:42.126Z,16.66
2023-02-28T15:39:46.803Z,16.84
2023-02-28T15:44:50.065Z,16.81
2023-02-28T15:50:00.209Z,16.89
2023-02-28T15:55:29.006Z,16.91
2023-02-28T16:00:34.165Z,16.89
2023-02-28T16:05:36.730Z,16.76
2023-02-28T16:10:38.958Z,16.76
2023-02-28T16:15:44.505Z,16.54
2023-02-28T16:20:46.806Z,16.65
2023-02-28T16:25:49.097Z,16.63
2023-02-28T16:30:57.576Z,16.46
2023-02-28T16:36:00.841Z,16.65
2023-02-28T16:41:03.021Z,16.62
2023-02-28T16:46:05.412Z,16.42
2023-02-28T16:51:13.008Z,16.48
2023-02-28T16:56:21.738Z,16.51
2023-02-28T17:01:24.174Z,16.45
2023-02-28T17:06:32.668Z,16.51
2023-02-28T17:11:34.940Z,16.35
2023-02-28T17:16:41.258Z,16.52
2023-02-28T17:21:44.940Z,16.61
2023-02-28T17:26:47.171Z,16.63
2023-02-28T17:31:49.627Z,16.65
2023-02-28T17:36:53.514Z,16.43
2023-02-28T17:41:56.816Z,16.61
2023-02-28T17:47:00.310Z,16.58
2023-02-28T17:52:03.131Z,16.55
2023-02-28T17:57:05.443Z,16.56
2023-02-28T18:02:07.998Z,16.62
2023-02-28T18:07:13.423Z,16.47
2023-02-28T18:12:15.624Z,16.45
2023-02-28T18:17:17.928Z,16.28
2023-02-28T18:22:20.023Z,16.17
2023-02-28T18:27:22.119Z,16.28
2023-02-28T18:32:24.375Z,16.38
2023-02-28T18:37:27.545Z,16.31
2023-02-28T18:42:30.590Z,16.39
2023-02-28T18:47:32.707Z,16.42
2023-02-28T18:52:34.811Z,16.43
2023-02-28T18:57:36.934Z,16.56
2023-02-28T19:02:39.348Z,16.53
2023-02-28T19:07:41.498Z,16.55
2023-02-28T19:12:43.925Z,16.32
2023-02-28T19:17:46.644Z,16.33
2023-02-28T19:22:48.810Z,16.38
2023-02-28T19:27:54.878Z,16.40
2023-02-28T19:32:57.142Z,16.47
2023-02-28T19:38:02.584Z,16.40
2023-02-28T19:43:06.178Z,16.29
2023-02-28T19:48:10.185Z,16.47
2023-02-28T19:53:12.277Z,16.56
2023-02-28T19:58:14.603Z,16.33
2023-02-28T20:03:18.729Z,16.40
2023-02-28T20:08:20.892Z,16.39
2023-02-28T20:13:28.016Z,16.34
2023-02-28T20:18:30.552Z,16.47
2023-02-28T20:23:32.679Z,16.32
2023-02-28T20:28:34.843Z,16.34
2023-02-28T20:33:36.951Z,16.24
2023-02-28T20:38:39.408Z,16.19
2023-02-28T20:43:42.445Z,16.06
2023-02-28T20:48:44.571Z,16.05
2023-02-28T20:53:46.780Z,15.91
2023-02-28T20:58:51.437Z,15.95
2023-02-28T21:03:58.105Z,16.00
2023-02-28T21:09:00.541Z,15.82
2023-02-28T21:14:06.160Z,15.92
2023-02-28T21:19:09.311Z,15.70
2023-02-28T21:24:17.759Z,15.87
2023-02-28T21:29:20.005Z,15.90
2023-02-28T21:34:22.348Z,16.02
2023-02-28T21:39:30.363Z,15.80
2023-02-28T21:44:34.805Z,15.92
2023-02-28T21:49:38.637Z,15.95
2023-02-28T21:54:40.724Z,15.96
2023-02-28T21:59:43.648Z,16.06
2023-02-28T22:04:45.734Z,15.96
2023-02-28T22:09:47.909Z,16.05
2023-02-28T22:14:50.203Z,16.19
2023-02-28T22:19:52.376Z,16.15
2023-02-28T22:24:54.591Z,16.03
2023-02-28T22:29:58.211Z,16.06
2023-02-28T22:35:00.341Z,16.11
2023-02-28T22:40:02.533Z,16.10
2023-02-28T22:45:04.879Z,16.08
2023-02-28T22:50:07.385Z,15.93
2023-02-28T22:55:10.255Z,15.79
2023-02-28T23:00:15.777Z,15.84
2023-02-28T23:05:18.465Z,15.92
2023-02-28T23:10:20.612Z,15.95
2023-02-28T23:15:23.944Z,15.91
2023-02-28T23:20:26.263Z,15.96
2023-02-28T23:25:28.452Z,15.88
2023-02-28T23:30:30.516Z,15.92
2023-02-28T23:35:34.562Z,15.96
2023-02-28T23:40:36.843Z,15.68
2023-02-28T23:45:39.125Z,15.68
2023-02-28T23:50:41.245Z,15.77
2023-02-28T23:55:47.931Z,15.71
